sensor_id;sensor_type;location;lat;lon;timestamp;pressure;altitude;pressure_sealevel;temperature;humidity
79463;BME280;68931;47.286;18.756;2024-02-26T00:00:01;99823.91;;;8.40;100.00
79463;BME280;68931;47.286;18.756;2024-02-26T00:00:33;99829.88;;;8.42;100.00
79463;BME280;68931;47.286;18.756;2024-02-26T00:01:06;99814.47;;;8.38;100.00
79463;BME280;68931;47.286;18.756;2024-02-26T00:01:39;99828.75;;;8.46;100.00
79463;BME280;68931;47.286;18.756;2024-02-26T00:02:11;99824.38;;;8.47;100.00
79463;BME280;68931;47.286;18.756;2024-02-26T00:02:43;99827.75;;;8.49;100.00
79463;BME280;68931;47.286;18.756;2024-02-26T00:03:15;99820.06;;;8.46;100.00
79463;BME280;68931;47.286;18.756;2024-02-26T00:03:47;99796.38;;;8.35;100.00
79463;BME280;68931;47.286;18.756;2024-02-26T00:04:20;99822.69;;;8.46;100.00
79463;BME280;68931;47.286;18.756;2024-02-26T00:04:53;99811.59;;;8.42;100.00
79463;BME280;68931;47.286;18.756;2024-02-26T00:05:25;99814.38;;;8.39;100.00
79463;BME280;68931;47.286;18.756;2024-02-26T00:05:57;99814.28;;;8.41;100.00
79463;BME280;68931;47.286;18.756;2024-02-26T00:06:30;99828.03;;;8.44;100.00
79463;BME280;68931;47.286;18.756;2024-02-26T00:07:03;99812.91;;;8.35;100.00
79463;BME280;68931;47.286;18.756;2024-02-26T00:07:35;99823.34;;;8.35;100.00
79463;BME280;68931;47.286;18.756;2024-02-26T00:08:07;99833.44;;;8.41;100.00
79463;BME280;68931;47.286;18.756;2024-02-26T00:08:39;99829.97;;;8.41;100.00
79463;BME280;68931;47.286;18.756;2024-02-26T00:09:11;99831.84;;;8.39;100.00
79463;BME280;68931;47.286;18.756;2024-02-26T00:09:43;99828.56;;;8.35;100.00
79463;BME280;68931;47.286;18.756;2024-02-26T00:10:15;99807.88;;;8.30;100.00
79463;BME280;68931;47.286;18.756;2024-02-26T00:10:47;99803.69;;;8.28;100.00
79463;BME280;68931;47.286;18.756;2024-02-26T00:11:19;99825.69;;;8.40;100.00
79463;BME280;68931;47.286;18.756;2024-02-26T00:11:51;99823.06;;;8.40;100.00
79463;BME280;68931;47.286;18.756;2024-02-26T00:12:23;99806.72;;;8.36;100.00
79463;BME280;68931;47.286;18.756;2024-02-26T00:12:55;99815.31;;;8.38;100.00
79463;BME280;68931;47.286;18.756;2024-02-26T00:13:27;99815.31;;;8.38;100.00
79463;BME280;68931;47.286;18.756;2024-02-26T00:13:59;99805.13;;;8.34;100.00
79463;BME280;68931;47.286;18.756;2024-02-26T00:14:31;99816.16;;;8.39;100.00
79463;BME280;68931;47.286;18.756;2024-02-26T00:15:03;99818.94;;;8.36;100.00
79463;BME280;68931;47.286;18.756;2024-02-26T00:15:35;99822.22;;;8.39;100.00
79463;BME280;68931;47.286;18.756;2024-02-26T00:16:07;99799.50;;;8.25;100.00
79463;BME280;68931;47.286;18.756;2024-02-26T00:16:40;99824.84;;;8.39;100.00
79463;BME280;68931;47.286;18.756;2024-02-26T00:17:13;99817.28;;;8.35;100.00
79463;BME280;68931;47.286;18.756;2024-02-26T00:17:45;99824.00;;;8.39;100.00
79463;BME280;68931;47.286;18.756;2024-02-26T00:18:17;99829.22;;;8.39;100.00
79463;BME280;68931;47.286;18.756;2024-02-26T00:18:49;99829.13;;;8.40;100.00
79463;BME280;68931;47.286;18.756;2024-02-26T00:19:22;99818.84;;;8.37;100.00
79463;BME280;68931;47.286;18.756;2024-02-26T00:19:54;99811.09;;;8.36;100.00
79463;BME280;68931;47.286;18.756;2024-02-26T00:20:26;99817.84;;;8.40;100.00
79463;BME280;68931;47.286;18.756;2024-02-26T00:20:59;99815.78;;;8.45;100.00
79463;BME280;68931;47.286;18.756;2024-02-26T00:21:31;99817.91;;;8.38;100.00
79463;BME280;68931;47.286;18.756;2024-02-26T00:22:03;99805.59;;;8.40;100.00
79463;BME280;68931;47.286;18.756;2024-02-26T00:22:35;99813.16;;;8.45;100.00
79463;BME280;68931;47.286;18.756;2024-02-26T00:23:07;99802.06;;;8.41;100.00
79463;BME280;68931;47.286;18.756;2024-02-26T00:23:39;99816.63;;;8.45;100.00
79463;BME280;68931;47.286;18.756;2024-02-26T00:24:11;99790.94;;;8.38;100.00
79463;BME280;68931;47.286;18.756;2024-02-26T00:24:43;99800.94;;;8.45;100.00
79463;BME280;68931;47.286;18.756;2024-02-26T00:25:15;99795.91;;;8.42;100.00
79463;BME280;68931;47.286;18.756;2024-02-26T00:25:47;99810.19;;;8.51;100.00
79463;BME280;68931;47.286;18.756;2024-02-26T00:26:19;99802.53;;;8.48;100.00
79463;BME280;68931;47.286;18.756;2024-02-26T00:26:51;99796.66;;;8.44;100.00
79463;BME280;68931;47.286;18.756;2024-02-26T00:27:26;99790.00;;;8.39;100.00
79463;BME280;68931;47.286;18.756;2024-02-26T00:27:58;99801.78;;;8.46;100.00
79463;BME280;68931;47.286;18.756;2024-02-26T00:28:30;99803.56;;;8.45;100.00
79463;BME280;68931;47.286;18.756;2024-02-26T00:29:03;99804.50;;;8.44;100.00
79463;BME280;68931;47.286;18.756;2024-02-26T00:29:35;99810.53;;;8.45;100.00
79463;BME280;68931;47.286;18.756;2024-02-26T00:30:07;99795.25;;;8.39;100.00
79463;BME280;68931;47.286;18.756;2024-02-26T00:30:39;99796.25;;;8.36;100.00
79463;BME280;68931;47.286;18.756;2024-02-26T00:31:11;99785.16;;;8.33;100.00
79463;BME280;68931;47.286;18.756;2024-02-26T00:31:43;99789.47;;;8.34;100.00
79463;BME280;68931;47.286;18.756;2024-02-26T00:32:15;99798.69;;;8.39;100.00
79463;BME280;68931;47.286;18.756;2024-02-26T00:32:47;99791.88;;;8.37;100.00
79463;BME280;68931;47.286;18.756;2024-02-26T00:33:19;99807.22;;;8.43;100.00
79463;BME280;68931;47.286;18.756;2024-02-26T00:33:52;99802.16;;;8.40;100.00
79463;BME280;68931;47.286;18.756;2024-02-26T00:34:25;99797.84;;;8.39;100.00
79463;BME280;68931;47.286;18.756;2024-02-26T00:34:57;99767.38;;;8.23;100.00
79463;BME280;68931;47.286;18.756;2024-02-26T00:35:29;99807.22;;;8.43;100.00
79463;BME280;68931;47.286;18.756;2024-02-26T00:36:01;99810.53;;;8.45;100.00
79463;BME280;68931;47.286;18.756;2024-02-26T00:36:33;99786.66;;;8.37;100.00
79463;BME280;68931;47.286;18.756;2024-02-26T00:37:05;99795.06;;;8.42;100.00
79463;BME280;68931;47.286;18.756;2024-02-26T00:37:37;99800.09;;;8.45;100.00
79463;BME280;68931;47.286;18.756;2024-02-26T00:38:09;99806.91;;;8.47;100.00
79463;BME280;68931;47.286;18.756;2024-02-26T00:38:41;99813.84;;;8.48;100.00
79463;BME280;68931;47.286;18.756;2024-02-26T00:39:14;99800.28;;;8.42;100.00
79463;BME280;68931;47.286;18.756;2024-02-26T00:39:46;99804.59;;;8.43;100.00
79463;BME280;68931;47.286;18.756;2024-02-26T00:40:19;99797.84;;;8.39;100.00
79463;BME280;68931;47.286;18.756;2024-02-26T00:40:51;99799.44;;;8.41;100.00
79463;BME280;68931;47.286;18.756;2024-02-26T00:41:23;99809.63;;;8.46;100.00
79463;BME280;68931;47.286;18.756;2024-02-26T00:41:55;99806.06;;;8.47;100.00
79463;BME280;68931;47.286;18.756;2024-02-26T00:42:27;99803.66;;;8.44;100.00
79463;BME280;68931;47.286;18.756;2024-02-26T00:42:59;99790.31;;;8.34;100.00
79463;BME280;68931;47.286;18.756;2024-02-26T00:43:31;99813.16;;;8.45;100.00
79463;BME280;68931;47.286;18.756;2024-02-26T00:44:03;99796.16;;;8.38;100.00
79463;BME280;68931;47.286;18.756;2024-02-26T00:44:35;99807.94;;;8.45;100.00
79463;BME280;68931;47.286;18.756;2024-02-26T00:45:07;99803.66;;;8.44;100.00
79463;BME280;68931;47.286;18.756;2024-02-26T00:45:39;99795.31;;;8.37;100.00
79463;BME280;68931;47.286;18.756;2024-02-26T00:46:11;99797.09;;;8.37;100.00
79463;BME280;68931;47.286;18.756;2024-02-26T00:46:43;99804.69;;;8.41;100.00
79463;BME280;68931;47.286;18.756;2024-02-26T00:47:15;99807.00;;;8.46;100.00
79463;BME280;68931;47.286;18.756;2024-02-26T00:47:47;99812.34;;;8.44;100.00
79463;BME280;68931;47.286;18.756;2024-02-26T00:48:20;99813.91;;;8.47;100.00
79463;BME280;68931;47.286;18.756;2024-02-26T00:48:52;99805.22;;;8.46;100.00
79463;BME280;68931;47.286;18.756;2024-02-26T00:49:24;99786.47;;;8.40;100.00
79463;BME280;68931;47.286;18.756;2024-02-26T00:49:56;99792.63;;;8.39;100.00
79463;BME280;68931;47.286;18.756;2024-02-26T00:50:28;99781.63;;;8.34;100.00
79463;BME280;68931;47.286;18.756;2024-02-26T00:51:04;99803.38;;;8.48;100.00
79463;BME280;68931;47.286;18.756;2024-02-26T00:51:39;99800.94;;;8.45;100.00
79463;BME280;68931;47.286;18.756;2024-02-26T00:52:11;99788.81;;;8.44;100.00
79463;BME280;68931;47.286;18.756;2024-02-26T00:52:43;99795.53;;;8.48;100.00
79463;BME280;68931;47.286;18.756;2024-02-26T00:53:15;99797.22;;;8.49;100.00
79463;BME280;68931;47.286;18.756;2024-02-26T00:53:47;99789.75;;;8.43;100.00
79463;BME280;68931;47.286;18.756;2024-02-26T00:54:19;99783.47;;;8.46;100.00
79463;BME280;68931;47.286;18.756;2024-02-26T00:54:51;99759.38;;;8.26;100.00
79463;BME280;68931;47.286;18.756;2024-02-26T00:55:23;99793.75;;;8.49;100.00
79463;BME280;68931;47.286;18.756;2024-02-26T00:55:55;99778.47;;;8.43;100.00
79463;BME280;68931;47.286;18.756;2024-02-26T00:56:27;99793.00;;;8.47;100.00
79463;BME280;68931;47.286;18.756;2024-02-26T00:57:02;99795.44;;;8.50;100.00
79463;BME280;68931;47.286;18.756;2024-02-26T00:57:34;99795.44;;;8.50;100.00
79463;BME280;68931;47.286;18.756;2024-02-26T00:58:06;99788.16;;;8.41;100.00
79463;BME280;68931;47.286;18.756;2024-02-26T00:58:39;99784.53;;;8.43;100.00
79463;BME280;68931;47.286;18.756;2024-02-26T00:59:11;99778.63;;;8.40;100.00
79463;BME280;68931;47.286;18.756;2024-02-26T00:59:43;99792.16;;;8.46;100.00
79463;BME280;68931;47.286;18.756;2024-02-26T01:00:15;99793.84;;;8.47;100.00
79463;BME280;68931;47.286;18.756;2024-02-26T01:00:47;99782.63;;;8.45;100.00
79463;BME280;68931;47.286;18.756;2024-02-26T01:01:19;99778.47;;;8.43;100.00
79463;BME280;68931;47.286;18.756;2024-02-26T01:01:51;99773.16;;;8.44;100.00
79463;BME280;68931;47.286;18.756;2024-02-26T01:02:23;99738.66;;;8.23;100.00
79463;BME280;68931;47.286;18.756;2024-02-26T01:02:55;99776.31;;;8.49;100.00
79463;BME280;68931;47.286;18.756;2024-02-26T01:03:30;99778.84;;;8.51;100.00
79463;BME280;68931;47.286;18.756;2024-02-26T01:04:03;99765.38;;;8.43;100.00
79463;BME280;68931;47.286;18.756;2024-02-26T01:04:35;99778.25;;;8.46;100.00
79463;BME280;68931;47.286;18.756;2024-02-26T01:05:08;99777.41;;;8.45;100.00
79463;BME280;68931;47.286;18.756;2024-02-26T01:05:43;99786.59;;;8.52;100.00
79463;BME280;68931;47.286;18.756;2024-02-26T01:06:15;99788.38;;;8.52;100.00
79463;BME280;68931;47.286;18.756;2024-02-26T01:06:47;99793.59;;;8.52;100.00
79463;BME280;68931;47.286;18.756;2024-02-26T01:07:19;99783.22;;;8.50;100.00
79463;BME280;68931;47.286;18.756;2024-02-26T01:07:51;99784.22;;;8.48;100.00
79463;BME280;68931;47.286;18.756;2024-02-26T01:08:23;99777.31;;;8.47;100.00
79463;BME280;68931;47.286;18.756;2024-02-26T01:08:55;99772.19;;;8.45;100.00
79463;BME280;68931;47.286;18.756;2024-02-26T01:09:30;99768.72;;;8.45;100.00
79463;BME280;68931;47.286;18.756;2024-02-26T01:10:02;99736.78;;;8.25;100.00
79463;BME280;68931;47.286;18.756;2024-02-26T01:10:35;99756.13;;;8.37;100.00
79463;BME280;68931;47.286;18.756;2024-02-26T01:11:10;99767.41;;;8.38;100.00
79463;BME280;68931;47.286;18.756;2024-02-26T01:11:42;99769.78;;;8.42;100.00
79463;BME280;68931;47.286;18.756;2024-02-26T01:12:14;99777.31;;;8.47;100.00
79463;BME280;68931;47.286;18.756;2024-02-26T01:12:47;99776.47;;;8.46;100.00
79463;BME280;68931;47.286;18.756;2024-02-26T01:13:19;99768.94;;;8.42;100.00
79463;BME280;68931;47.286;18.756;2024-02-26T01:13:51;99772.47;;;8.41;100.00
79463;BME280;68931;47.286;18.756;2024-02-26T01:14:28;99771.53;;;8.42;100.00
79463;BME280;68931;47.286;18.756;2024-02-26T01:15:03;99782.56;;;8.47;100.00
79463;BME280;68931;47.286;18.756;2024-02-26T01:15:35;99763.13;;;8.37;100.00
79463;BME280;68931;47.286;18.756;2024-02-26T01:16:07;99774.91;;;8.44;100.00
79463;BME280;68931;47.286;18.756;2024-02-26T01:16:39;99774.16;;;8.42;100.00
79463;BME280;68931;47.286;18.756;2024-02-26T01:17:11;99767.63;;;8.35;100.00
79463;BME280;68931;47.286;18.756;2024-02-26T01:17:43;99787.03;;;8.45;100.00
79463;BME280;68931;47.286;18.756;2024-02-26T01:18:15;99772.56;;;8.39;100.00
79463;BME280;68931;47.286;18.756;2024-02-26T01:18:47;99775.00;;;8.42;100.00
79463;BME280;68931;47.286;18.756;2024-02-26T01:19:20;99770.88;;;8.38;100.00
79463;BME280;68931;47.286;18.756;2024-02-26T01:19:52;99768.34;;;8.37;100.00
79463;BME280;68931;47.286;18.756;2024-02-26T01:20:25;99766.31;;;8.42;100.00
79463;BME280;68931;47.286;18.756;2024-02-26T01:20:59;99774.78;;;8.45;100.00
79463;BME280;68931;47.286;18.756;2024-02-26T01:21:31;99770.63;;;8.43;100.00
79463;BME280;68931;47.286;18.756;2024-02-26T01:22:03;99768.00;;;8.43;100.00
79463;BME280;68931;47.286;18.756;2024-02-26T01:22:36;99769.56;;;8.45;100.00
79463;BME280;68931;47.286;18.756;2024-02-26T01:23:07;99755.19;;;8.38;100.00
79463;BME280;68931;47.286;18.756;2024-02-26T01:23:40;99743.69;;;8.26;100.00
79463;BME280;68931;47.286;18.756;2024-02-26T01:24:12;99761.09;;;8.42;100.00
79463;BME280;68931;47.286;18.756;2024-02-26T01:24:44;99741.59;;;8.33;100.00
79463;BME280;68931;47.286;18.756;2024-02-26T01:25:16;99749.22;;;8.36;100.00
79463;BME280;68931;47.286;18.756;2024-02-26T01:25:48;99761.94;;;8.42;100.00
79463;BME280;68931;47.286;18.756;2024-02-26T01:26:20;99755.09;;;8.40;100.00
79463;BME280;68931;47.286;18.756;2024-02-26T01:26:53;99738.97;;;8.33;100.00
79463;BME280;68931;47.286;18.756;2024-02-26T01:27:25;99761.00;;;8.43;100.00
79463;BME280;68931;47.286;18.756;2024-02-26T01:27:59;99756.63;;;8.44;100.00
79463;BME280;68931;47.286;18.756;2024-02-26T01:28:31;99756.50;;;8.45;100.00
79463;BME280;68931;47.286;18.756;2024-02-26T01:29:03;99758.94;;;8.48;100.00
79463;BME280;68931;47.286;18.756;2024-02-26T01:29:35;99748.03;;;8.42;100.00
79463;BME280;68931;47.286;18.756;2024-02-26T01:30:07;99746.03;;;8.45;100.00
79463;BME280;68931;47.286;18.756;2024-02-26T01:30:39;99754.63;;;8.47;100.00
79463;BME280;68931;47.286;18.756;2024-02-26T01:31:11;99754.72;;;8.46;100.00
79463;BME280;68931;47.286;18.756;2024-02-26T01:31:43;99754.72;;;8.46;100.00
79463;BME280;68931;47.286;18.756;2024-02-26T01:32:15;99747.81;;;8.45;100.00
79463;BME280;68931;47.286;18.756;2024-02-26T01:32:47;99748.47;;;8.48;100.00
79463;BME280;68931;47.286;18.756;2024-02-26T01:33:19;99753.72;;;8.48;100.00
79463;BME280;68931;47.286;18.756;2024-02-26T01:33:51;99760.53;;;8.51;100.00
79463;BME280;68931;47.286;18.756;2024-02-26T01:34:24;99754.56;;;8.49;100.00
79463;BME280;68931;47.286;18.756;2024-02-26T01:34:56;99761.47;;;8.50;100.00
79463;BME280;68931;47.286;18.756;2024-02-26T01:35:29;99756.06;;;8.53;100.00
79463;BME280;68931;47.286;18.756;2024-02-26T01:36:01;99756.16;;;8.51;100.00
79463;BME280;68931;47.286;18.756;2024-02-26T01:36:33;99761.28;;;8.53;100.00
79463;BME280;68931;47.286;18.756;2024-02-26T01:37:06;99733.44;;;8.38;100.00
79463;BME280;68931;47.286;18.756;2024-02-26T01:37:38;99755.09;;;8.54;100.00
79463;BME280;68931;47.286;18.756;2024-02-26T01:38:10;99751.75;;;8.52;100.00
79463;BME280;68931;47.286;18.756;2024-02-26T01:38:42;99758.69;;;8.53;100.00
79463;BME280;68931;47.286;18.756;2024-02-26T01:39:14;99759.41;;;8.55;100.00
79463;BME280;68931;47.286;18.756;2024-02-26T01:39:46;99750.06;;;8.51;100.00
79463;BME280;68931;47.286;18.756;2024-02-26T01:40:18;99760.25;;;8.55;100.00
79463;BME280;68931;47.286;18.756;2024-02-26T01:40:51;99745.19;;;8.45;100.00
79463;BME280;68931;47.286;18.756;2024-02-26T01:41:23;99746.53;;;8.52;100.00
79463;BME280;68931;47.286;18.756;2024-02-26T01:41:55;99751.47;;;8.56;100.00
79463;BME280;68931;47.286;18.756;2024-02-26T01:42:27;99760.06;;;8.58;100.00
79463;BME280;68931;47.286;18.756;2024-02-26T01:43:02;99754.75;;;8.60;100.00
79463;BME280;68931;47.286;18.756;2024-02-26T01:43:34;99759.13;;;8.59;100.00
79463;BME280;68931;47.286;18.756;2024-02-26T01:44:06;99739.53;;;8.52;100.00
79463;BME280;68931;47.286;18.756;2024-02-26T01:44:41;99751.38;;;8.58;100.00
79463;BME280;68931;47.286;18.756;2024-02-26T01:45:16;99756.22;;;8.64;100.00
79463;BME280;68931;47.286;18.756;2024-02-26T01:45:54;99747.91;;;8.57;100.00
79463;BME280;68931;47.286;18.756;2024-02-26T01:46:26;99761.44;;;8.64;100.00
79463;BME280;68931;47.286;18.756;2024-02-26T01:47:00;99754.44;;;8.64;100.00
79463;BME280;68931;47.286;18.756;2024-02-26T01:47:33;99740.47;;;8.51;100.00
79463;BME280;68931;47.286;18.756;2024-02-26T01:48:06;99755.47;;;8.62;100.00
79463;BME280;68931;47.286;18.756;2024-02-26T01:48:39;99749.59;;;8.58;100.00
79463;BME280;68931;47.286;18.756;2024-02-26T01:49:12;99750.38;;;8.60;100.00
79463;BME280;68931;47.286;18.756;2024-02-26T01:49:45;99760.53;;;8.65;100.00
79463;BME280;68931;47.286;18.756;2024-02-26T01:50:18;99757.91;;;8.65;100.00
79463;BME280;68931;47.286;18.756;2024-02-26T01:50:51;99758.84;;;8.64;100.00
79463;BME280;68931;47.286;18.756;2024-02-26T01:51:23;99748.59;;;8.61;100.00
79463;BME280;68931;47.286;18.756;2024-02-26T01:51:56;99739.41;;;8.54;100.00
79463;BME280;68931;47.286;18.756;2024-02-26T01:52:29;99742.03;;;8.54;100.00
79463;BME280;68931;47.286;18.756;2024-02-26T01:53:01;99758.38;;;8.57;100.00
79463;BME280;68931;47.286;18.756;2024-02-26T01:53:33;99754.66;;;8.61;100.00
79463;BME280;68931;47.286;18.756;2024-02-26T01:54:08;99765.00;;;8.63;100.00
79463;BME280;68931;47.286;18.756;2024-02-26T01:54:40;99741.31;;;8.52;100.00
79463;BME280;68931;47.286;18.756;2024-02-26T01:55:14;99748.75;;;8.58;100.00
79463;BME280;68931;47.286;18.756;2024-02-26T01:55:46;99741.41;;;8.50;100.00
79463;BME280;68931;47.286;18.756;2024-02-26T01:56:20;99752.13;;;8.60;100.00
79463;BME280;68931;47.286;18.756;2024-02-26T01:56:54;99760.69;;;8.62;100.00
79463;BME280;68931;47.286;18.756;2024-02-26T01:57:27;99768.28;;;8.66;100.00
79463;BME280;68931;47.286;18.756;2024-02-26T01:58:00;99764.16;;;8.62;100.00
79463;BME280;68931;47.286;18.756;2024-02-26T01:58:34;99762.59;;;8.60;100.00
79463;BME280;68931;47.286;18.756;2024-02-26T01:59:08;99751.00;;;8.50;100.00
79463;BME280;68931;47.286;18.756;2024-02-26T01:59:41;99773.69;;;8.63;100.00
79463;BME280;68931;47.286;18.756;2024-02-26T02:00:14;99770.44;;;8.60;100.00
79463;BME280;68931;47.286;18.756;2024-02-26T02:00:48;99737.34;;;8.45;100.00
79463;BME280;68931;47.286;18.756;2024-02-26T02:01:22;99769.38;;;8.62;100.00
79463;BME280;68931;47.286;18.756;2024-02-26T02:01:58;99761.94;;;8.56;100.00
79463;BME280;68931;47.286;18.756;2024-02-26T02:02:33;99773.69;;;8.63;100.00
79463;BME280;68931;47.286;18.756;2024-02-26T02:03:06;99777.13;;;8.64;100.00
79463;BME280;68931;47.286;18.756;2024-02-26T02:03:38;99770.88;;;8.66;100.00
79463;BME280;68931;47.286;18.756;2024-02-26T02:04:11;99761.66;;;8.61;100.00
79463;BME280;68931;47.286;18.756;2024-02-26T02:04:43;99765.66;;;8.66;100.00
79463;BME280;68931;47.286;18.756;2024-02-26T02:05:20;99769.13;;;8.67;100.00
79463;BME280;68931;47.286;18.756;2024-02-26T02:05:53;99769.28;;;8.64;100.00
79463;BME280;68931;47.286;18.756;2024-02-26T02:06:26;99766.69;;;8.64;100.00
79463;BME280;68931;47.286;18.756;2024-02-26T02:07:00;99740.63;;;8.48;100.00
79463;BME280;68931;47.286;18.756;2024-02-26T02:07:34;99763.13;;;8.65;100.00
79463;BME280;68931;47.286;18.756;2024-02-26T02:08:08;99759.75;;;8.63;100.00
79463;BME280;68931;47.286;18.756;2024-02-26T02:08:42;99754.66;;;8.61;100.00
79463;BME280;68931;47.286;18.756;2024-02-26T02:09:15;99757.16;;;8.63;100.00
79463;BME280;68931;47.286;18.756;2024-02-26T02:09:48;99752.97;;;8.60;100.00
79463;BME280;68931;47.286;18.756;2024-02-26T02:10:20;99743.72;;;8.55;100.00
79463;BME280;68931;47.286;18.756;2024-02-26T02:11:00;99764.28;;;8.61;100.00
79463;BME280;68931;47.286;18.756;2024-02-26T02:11:34;99754.00;;;8.58;100.00
79463;BME280;68931;47.286;18.756;2024-02-26T02:12:07;99750.84;;;8.53;100.00
79463;BME280;68931;47.286;18.756;2024-02-26T02:12:39;99762.75;;;8.57;100.00
79463;BME280;68931;47.286;18.756;2024-02-26T02:13:12;99767.91;;;8.58;100.00
79463;BME280;68931;47.286;18.756;2024-02-26T02:13:44;99774.72;;;8.61;100.00
79463;BME280;68931;47.286;18.756;2024-02-26T02:14:16;99767.16;;;8.56;100.00
79463;BME280;68931;47.286;18.756;2024-02-26T02:14:48;99770.44;;;8.60;100.00
79463;BME280;68931;47.286;18.756;2024-02-26T02:15:23;99772.13;;;8.61;100.00
79463;BME280;68931;47.286;18.756;2024-02-26T02:15:55;99760.31;;;8.54;100.00
79463;BME280;68931;47.286;18.756;2024-02-26T02:16:27;99761.38;;;8.51;100.00
79463;BME280;68931;47.286;18.756;2024-02-26T02:17:02;99739.44;;;8.40;100.00
79463;BME280;68931;47.286;18.756;2024-02-26T02:17:42;99744.47;;;8.43;100.00
79463;BME280;68931;47.286;18.756;2024-02-26T02:18:14;99744.28;;;8.46;100.00
79463;BME280;68931;47.286;18.756;2024-02-26T02:18:46;99773.03;;;8.60;100.00
79463;BME280;68931;47.286;18.756;2024-02-26T02:19:18;99770.78;;;8.54;100.00
79463;BME280;68931;47.286;18.756;2024-02-26T02:19:50;99763.31;;;8.48;100.00
79463;BME280;68931;47.286;18.756;2024-02-26T02:20:32;99766.13;;;8.45;100.00
79463;BME280;68931;47.286;18.756;2024-02-26T02:21:05;99760.06;;;8.44;100.00
79463;BME280;68931;47.286;18.756;2024-02-26T02:21:38;99770.25;;;8.49;100.00
79463;BME280;68931;47.286;18.756;2024-02-26T02:22:10;99768.56;;;8.48;100.00
79463;BME280;68931;47.286;18.756;2024-02-26T02:22:42;99746.59;;;8.36;100.00
79463;BME280;68931;47.286;18.756;2024-02-26T02:23:14;99744.19;;;8.33;100.00
79463;BME280;68931;47.286;18.756;2024-02-26T02:23:46;99751.66;;;8.39;100.00
79463;BME280;68931;47.286;18.756;2024-02-26T02:24:29;99741.59;;;8.33;100.00
79463;BME280;68931;47.286;18.756;2024-02-26T02:25:01;99765.09;;;8.47;100.00
79463;BME280;68931;47.286;18.756;2024-02-26T02:25:33;99741.38;;;8.36;100.00
79463;BME280;68931;47.286;18.756;2024-02-26T02:26:05;99753.25;;;8.42;100.00
79463;BME280;68931;47.286;18.756;2024-02-26T02:26:38;99754.00;;;8.44;100.00
79463;BME280;68931;47.286;18.756;2024-02-26T02:27:10;99762.47;;;8.47;100.00
79463;BME280;68931;47.286;18.756;2024-02-26T02:27:43;99744.19;;;8.33;100.00
79463;BME280;68931;47.286;18.756;2024-02-26T02:28:15;99760.88;;;8.45;100.00
79463;BME280;68931;47.286;18.756;2024-02-26T02:28:48;99761.84;;;8.44;100.00
79463;BME280;68931;47.286;18.756;2024-02-26T02:29:20;99754.72;;;8.46;100.00
79463;BME280;68931;47.286;18.756;2024-02-26T02:29:53;99768.63;;;8.46;100.00
79463;BME280;68931;47.286;18.756;2024-02-26T02:30:28;99754.19;;;8.41;100.00
79463;BME280;68931;47.286;18.756;2024-02-26T02:31:01;99742.75;;;8.27;100.00
79463;BME280;68931;47.286;18.756;2024-02-26T02:31:33;99759.50;;;8.39;100.00
79463;BME280;68931;47.286;18.756;2024-02-26T02:32:06;99750.34;;;8.32;100.00
79463;BME280;68931;47.286;18.756;2024-02-26T02:32:40;99765.47;;;8.41;100.00
79463;BME280;68931;47.286;18.756;2024-02-26T02:33:17;99757.91;;;8.37;100.00
79463;BME280;68931;47.286;18.756;2024-02-26T02:33:52;99739.94;;;8.30;100.00
79463;BME280;68931;47.286;18.756;2024-02-26T02:34:24;99763.78;;;8.40;100.00
79463;BME280;68931;47.286;18.756;2024-02-26T02:34:57;99750.06;;;8.37;100.00
79463;BME280;68931;47.286;18.756;2024-02-26T02:35:29;99740.97;;;8.28;100.00
79463;BME280;68931;47.286;18.756;2024-02-26T02:36:01;99764.72;;;8.39;100.00
79463;BME280;68931;47.286;18.756;2024-02-26T02:36:33;99761.25;;;8.39;100.00
79463;BME280;68931;47.286;18.756;2024-02-26T02:37:17;99750.41;;;8.30;100.00
79463;BME280;68931;47.286;18.756;2024-02-26T02:37:55;99755.19;;;8.38;100.00
79463;BME280;68931;47.286;18.756;2024-02-26T02:38:30;99764.63;;;8.41;100.00
79463;BME280;68931;47.286;18.756;2024-02-26T02:39:03;99745.19;;;8.30;100.00
79463;BME280;68931;47.286;18.756;2024-02-26T02:39:35;99759.78;;;8.35;100.00
79463;BME280;68931;47.286;18.756;2024-02-26T02:40:07;99751.09;;;8.34;100.00
79463;BME280;68931;47.286;18.756;2024-02-26T02:40:40;99743.50;;;8.29;100.00
79463;BME280;68931;47.286;18.756;2024-02-26T02:41:11;99751.19;;;8.33;100.00
79463;BME280;68931;47.286;18.756;2024-02-26T02:41:44;99759.66;;;8.36;100.00
79463;BME280;68931;47.286;18.756;2024-02-26T02:42:16;99747.78;;;8.30;100.00
79463;BME280;68931;47.286;18.756;2024-02-26T02:42:48;99769.19;;;8.37;100.00
79463;BME280;68931;47.286;18.756;2024-02-26T02:43:20;99758.94;;;8.34;100.00
79463;BME280;68931;47.286;18.756;2024-02-26T02:43:52;99745.47;;;8.26;100.00
79463;BME280;68931;47.286;18.756;2024-02-26T02:44:33;99731.19;;;8.17;100.00
79463;BME280;68931;47.286;18.756;2024-02-26T02:45:09;99732.28;;;8.13;100.00
79463;BME280;68931;47.286;18.756;2024-02-26T02:45:42;99745.72;;;8.21;100.00
79463;BME280;68931;47.286;18.756;2024-02-26T02:46:14;99768.47;;;8.35;100.00
79463;BME280;68931;47.286;18.756;2024-02-26T02:46:46;99765.19;;;8.32;100.00
79463;BME280;68931;47.286;18.756;2024-02-26T02:47:18;99760.94;;;8.29;100.00
79463;BME280;68931;47.286;18.756;2024-02-26T02:47:52;99756.75;;;8.26;100.00
79463;BME280;68931;47.286;18.756;2024-02-26T02:48:24;99765.31;;;8.28;100.00
79463;BME280;68931;47.286;18.756;2024-02-26T02:48:56;99750.94;;;8.21;100.00
79463;BME280;68931;47.286;18.756;2024-02-26T02:49:28;99741.50;;;8.19;100.00
79463;BME280;68931;47.286;18.756;2024-02-26T02:50:00;99737.97;;;8.20;100.00
79463;BME280;68931;47.286;18.756;2024-02-26T02:50:32;99741.25;;;8.23;100.00
79463;BME280;68931;47.286;18.756;2024-02-26T02:51:04;99747.03;;;8.28;100.00